Flight Track Log - Related Links

Times and Time Zones

All times are in EDT time to prevent confusion due to time zone crossing. See the AZU2482 flight status page for this flight to view local times or setup timezone preferences in your user account.

Time Position Orientation Groundspeed Altitude Reporting Facility
EDT Latitude Longitude Course Direction KTS MPH feet Rate Location/Type
Mon 08:05:45 AM -23.4286 -46.4618 74° East 114 131 2,600  Level FlightAware ADS-B
Mon 08:06:01 AM -23.4264 -46.4534 76° East 114 131 3,000 1,667 Climbing FlightAware ADS-B
Mon 08:06:03 AM -23.4260 -46.4515 76° East 113 130 3,100 1,286 Climbing FlightAware ADS-B
Mon 08:06:15 AM -23.4241 -46.4445 73° East 122 140 3,300 800 Climbing FlightAware ADS-B
Mon 08:06:18 AM -23.4237 -46.4431 73° East 126 145 3,300 750 Level FlightAware ADS-B
Mon 08:06:31 AM -23.4213 -46.4352 71° East 137 158 3,500 750 Climbing FlightAware ADS-B
Mon 08:06:34 AM -23.4205 -46.4327 71° East 142 163 3,500 429 Level FlightAware ADS-B
Mon 08:06:45 AM -23.4181 -46.4250 71° East 155 178 3,600 571 Climbing FlightAware ADS-B
Mon 08:06:55 AM -23.4159 -46.4178 72° East 158 182 3,700 1,200 Climbing FlightAware ADS-B
Mon 08:07:00 AM -23.4145 -46.4132 71° East 156 180 3,900 1,263 Climbing FlightAware ADS-B
Mon 08:07:14 AM -23.4115 -46.4037 72° East 161 185 4,100 1,125 Climbing FlightAware ADS-B
Mon 08:07:16 AM -23.4113 -46.4029 71° East 160 184 4,200 1,059 Climbing FlightAware ADS-B
Mon 08:07:31 AM -23.4074 -46.3901 71° East 167 192 4,400 750 Climbing FlightAware ADS-B
Mon 08:07:32 AM -23.4072 -46.3895 72° East 169 194 4,400 857 Level FlightAware ADS-B
Mon 08:07:45 AM -23.4037 -46.3779 71° East 171 197 4,600 1,125 Climbing FlightAware ADS-B
Mon 08:07:48 AM -23.4032 -46.3764 72° East 172 198 4,700 1,125 Climbing FlightAware ADS-B
Mon 08:08:01 AM -23.3999 -46.3652 72° East 174 200 4,900 1,059 Climbing FlightAware ADS-B
Mon 08:08:05 AM -23.3987 -46.3613 72° East 174 200 5,000 1,286 Climbing FlightAware ADS-B
Mon 08:08:15 AM -23.3962 -46.3529 72° East 175 201 5,200 1,154 Climbing FlightAware ADS-B
Mon 08:08:31 AM -23.3923 -46.3400 72° East 176 203 5,500 1,000 Climbing FlightAware ADS-B
Mon 08:08:45 AM -23.3885 -46.3272 72° East 178 205 5,700 1,143 Climbing FlightAware ADS-B
Mon 08:08:52 AM -23.3868 -46.3216 72° East 180 207 5,900 1,200 Climbing FlightAware ADS-B
Mon 08:09:00 AM -23.3845 -46.3142 72° East 179 206 6,000 1,125 Climbing FlightAware ADS-B
Mon 08:09:08 AM -23.3825 -46.3075 72° East 181 208 6,200 1,125 Climbing FlightAware ADS-B
Mon 08:09:16 AM -23.3808 -46.3016 71° East 180 207 6,300 1,059 Climbing FlightAware ADS-B
Mon 08:09:25 AM -23.3782 -46.2928 72° East 181 208 6,500 1,200 Climbing FlightAware ADS-B
Mon 08:09:31 AM -23.3768 -46.2882 72° East 183 211 6,600 900 Climbing FlightAware ADS-B
Mon 08:09:45 AM -23.3729 -46.2751 72° East 185 213 6,800 1,034 Climbing FlightAware ADS-B
Mon 08:10:00 AM -23.3692 -46.2627 72° East 187 215 7,100 889 Climbing FlightAware ADS-B
Mon 08:10:12 AM -23.3658 -46.2513 72° East 190 219 7,200 800 Climbing FlightAware ADS-B
Mon 08:10:15 AM -23.3650 -46.2489 72° East 191 220 7,300 1,333 Climbing FlightAware ADS-B
Mon 08:10:30 AM -23.3607 -46.2341 72° East 189 217 7,600 1,059 Climbing FlightAware ADS-B
Mon 08:10:32 AM -23.3605 -46.2335 72° East 189 217 7,600 1,125 Level FlightAware ADS-B
Mon 08:10:46 AM -23.3567 -46.2208 72° East 191 220 7,900 1,059 Climbing FlightAware ADS-B
Mon 08:10:49 AM -23.3561 -46.2189 72° East 191 220 7,900 429 Level FlightAware ADS-B
Mon 08:11:00 AM -23.3530 -46.2088 72° East 195 224 8,000 800 Climbing FlightAware ADS-B
Mon 08:11:04 AM -23.3516 -46.2039 72° East 196 226 8,100 750 Climbing FlightAware ADS-B
Mon 08:11:16 AM -23.3481 -46.1923 72° East 198 228 8,200 800 Climbing FlightAware ADS-B
Mon 08:11:19 AM -23.3473 -46.1896 72° East 200 230 8,300 800 Climbing FlightAware ADS-B
Mon 08:11:31 AM -23.3438 -46.1779 72° East 200 230 8,400 692 Climbing FlightAware ADS-B
Mon 08:11:45 AM -23.3395 -46.1632 72° East 202 232 8,600 960 Climbing FlightAware ADS-B
Mon 08:11:56 AM -23.3365 -46.1534 72° East 204 235 8,800 800 Climbing FlightAware ADS-B
Mon 08:12:00 AM -23.3350 -46.1485 72° East 205 236 8,800 667 Level FlightAware ADS-B
Mon 08:12:14 AM -23.3314 -46.1365 72° East 207 238 9,000 800 Climbing FlightAware ADS-B
Mon 08:12:15 AM -23.3310 -46.1351 72° East 208 239 9,000 750 Level FlightAware ADS-B
Mon 08:12:30 AM -23.3261 -46.1186 72° East 209 241 9,200 1,000 Climbing FlightAware ADS-B
Mon 08:12:33 AM -23.3252 -46.1156 72° East 209 241 9,300 1,125 Climbing FlightAware ADS-B
Mon 08:12:46 AM -23.3217 -46.1039 72° East 209 241 9,500 667 Climbing FlightAware ADS-B
Mon 08:12:51 AM -23.3199 -46.0980 72° East 210 242 9,500 429 Level FlightAware ADS-B
Mon 08:13:00 AM -23.3172 -46.0888 71° East 210 242 9,600 750 Climbing FlightAware ADS-B
Mon 08:13:15 AM -23.3129 -46.0748 72° East 211 243 9,800 900 Climbing FlightAware ADS-B
Mon 08:13:20 AM -23.3120 -46.0715 72° East 211 243 9,900 774 Climbing FlightAware ADS-B
Mon 08:13:46 AM -23.3033 -46.0427 71° East 213 245 10,200 837 Climbing FlightAware ADS-B
Mon 08:14:03 AM -23.2975 -46.0257 58° Northeast 213 245 10,500 947 Climbing FlightAware ADS-B
Mon 08:14:05 AM -23.2960 -46.0230 55° Northeast 212 244 10,500 500 Level FlightAware ADS-B
Mon 08:14:15 AM -23.2899 -46.0165 36° Northeast 210 242 10,600 667 Climbing FlightAware ADS-B
Mon 08:14:23 AM -23.2820 -46.0125 18° North 209 241 10,700 400 Climbing FlightAware ADS-B (SDAM)
Mon 08:14:30 AM -23.2755 -46.0108 13° North 211 243 10,700 462 Level FlightAware ADS-B
Mon 08:14:36 AM -23.2700 -46.0096 14° North 209 241 10,800 500 Climbing FlightAware ADS-B
Mon 08:15:06 AM -23.2420 -46.0042 14° North 209 241 11,000 450 Climbing FlightAware ADS-B
Mon 08:15:16 AM -23.2304 -46.0022 North 219 252 11,100 621 Climbing FlightAware ADS-B
Mon 08:15:35 AM -23.2103 -45.9984 10° North 222 255 11,300 621 Climbing FlightAware ADS-B
Mon 08:15:45 AM -23.2002 -45.9964 North 225 259 11,400 732 Climbing FlightAware ADS-B
Mon 08:16:16 AM -23.1690 -45.9903 10° North 222 255 11,800 787 Climbing FlightAware ADS-B
Mon 08:16:46 AM -23.1390 -45.9845 10° North 220 253 12,200 621 Climbing FlightAware ADS-B
Mon 08:17:14 AM -23.1112 -45.9791 10° North 222 255 12,400 621 Climbing FlightAware ADS-B
Mon 08:17:15 AM -23.1085 -45.9785 10° North 222 255 12,500 750 Climbing FlightAware ADS-B
Mon 08:17:46 AM -23.0776 -45.9725 10° North 220 253 12,800 590 Climbing FlightAware ADS-B
Mon 08:18:16 AM -23.0470 -45.9665 10° North 223 257 13,100 600 Climbing FlightAware ADS-B
Mon 08:18:46 AM -23.0162 -45.9604 10° North 225 259 13,400 600 Climbing FlightAware ADS-B
Mon 08:19:16 AM -22.9857 -45.9545 10° North 225 259 13,700 508 Climbing FlightAware ADS-B
Mon 08:19:45 AM -22.9546 -45.9484 10° North 227 261 13,900 508 Climbing FlightAware ADS-B
Mon 08:20:15 AM -22.9239 -45.9423 10° North 226 260 14,200 600 Climbing FlightAware ADS-B
Mon 08:20:25 AM -22.9136 -45.9403 10° North 227 261 14,300 600 Climbing FlightAware ADS-B
Mon 08:20:45 AM -22.8923 -45.9361 10° North 227 261 14,500 649 Climbing FlightAware ADS-B
Mon 08:21:02 AM -22.8741 -45.9326 10° North 229 264 14,700 400 Climbing FlightAware ADS-B
Mon 08:21:15 AM -22.8607 -45.9300 10° North 228 262 14,700 387 Level FlightAware ADS-B
Mon 08:21:33 AM -22.8418 -45.9262 10° North 230 265 14,900 600 Climbing FlightAware ADS-B
Mon 08:21:45 AM -22.8293 -45.9238 10° North 229 264 15,000 429 Climbing FlightAware ADS-B
Mon 08:22:15 AM -22.7997 -45.9180 10° North 231 266 15,200 500 Climbing FlightAware ADS-B
Mon 08:22:45 AM -22.7659 -45.9113 10° North 231 266 15,500 563 Climbing FlightAware ADS-B
Mon 08:22:47 AM -22.7647 -45.9111 10° North 232 267 15,500 400 Level FlightAware ADS-B
Mon 08:23:15 AM -22.7337 -45.9050 10° North 232 267 15,700 414 Climbing FlightAware ADS-B
Mon 08:23:45 AM -22.7016 -45.8986 10° North 232 267 15,900 500 Climbing FlightAware ADS-B
Mon 08:24:15 AM -22.6701 -45.8924 10° North 231 266 16,200 492 Climbing FlightAware ADS-B
Mon 08:24:46 AM -22.6395 -45.8865 10° North 230 265 16,400 462 Climbing FlightAware ADS-B
Mon 08:24:54 AM -22.6287 -45.8843 10° North 231 266 16,500 600 Climbing FlightAware ADS-B
Mon 08:25:16 AM -22.6064 -45.8800 10° North 230 265 16,700 462 Climbing FlightAware ADS-B
Mon 08:25:46 AM -22.5760 -45.8740 10° North 231 266 16,900 400 Climbing FlightAware ADS-B
Mon 08:26:16 AM -22.5450 -45.8680 10° North 233 268 17,100 316 Climbing FlightAware ADS-B
Mon 08:26:43 AM -22.5194 -45.8630 10° North 234 269 17,200 400 Climbing FlightAware ADS-B
Mon 08:27:16 AM -22.4781 -45.8549 10° North 235 270 17,500 484 Climbing FlightAware ADS-B
Mon 08:27:45 AM -22.4468 -45.8489 10° North 235 270 17,700 407 Climbing FlightAware ADS-B
Mon 08:28:15 AM -22.4156 -45.8428 10° North 235 270 17,900 300 Climbing FlightAware ADS-B
Mon 08:28:45 AM -22.3834 -45.8365 10° North 237 273 18,000 300 Climbing FlightAware ADS-B
Mon 08:29:15 AM -22.3486 -45.8297 10° North 237 273 18,200 393 Climbing FlightAware ADS-B
Mon 08:29:46 AM -22.3153 -45.8232 10° North 237 273 18,400 400 Climbing FlightAware ADS-B
Mon 08:30:15 AM -22.2852 -45.8174 10° North 236 272 18,600 375 Climbing FlightAware ADS-B
Mon 08:30:50 AM -22.2473 -45.8100 10° North 238 274 18,800 369 Climbing FlightAware ADS-B
Mon 08:31:20 AM -22.2149 -45.8037 14° North 239 275 19,000 273 Climbing FlightAware ADS-B
Mon 08:31:34 AM -22.1985 -45.7970 27° Northeast 243 280 19,000  Level FlightAware ADS-B (SDAM)
Mon 08:32:11 AM -22.1626 -45.7698 35° Northeast 254 292 19,000  Level FlightAware ADS-B (SDAM)
Mon 08:32:56 AM -22.1191 -45.7360 36° Northeast 254 292 19,000  Level FlightAware ADS-B (SDAM)
Mon 08:33:41 AM -22.0734 -45.7003 36° Northeast 270 311 19,000  Level FlightAware ADS-B (SDAM)
Mon 08:34:27 AM -22.0272 -45.6646 35° Northeast 274 315 19,000  Level FlightAware ADS-B (SDAM)
Mon 08:35:12 AM -21.9806 -45.6286 35° Northeast 277 319 19,000  Level FlightAware ADS-B (SDAM)
Mon 08:35:41 AM -21.9491 -45.6043 35° Northeast 278 320 19,000  Level FlightAware ADS-B (SDAM)
Mon 08:36:12 AM -21.9163 -45.5788 35° Northeast 279 321 19,000  Level FlightAware ADS-B (SDAM)
Mon 08:36:41 AM -21.8869 -45.5562 35° Northeast 280 322 19,000  Level FlightAware ADS-B (SDAM)
Mon 08:37:09 AM -21.8555 -45.5321 35° Northeast 280 322 19,000  Level FlightAware ADS-B (SDAM)
Mon 08:37:40 AM -21.8268 -45.5099 35° Northeast 280 322 19,000  Level FlightAware ADS-B (SDAM)
Mon 08:38:10 AM -21.7976 -45.4876 35° Northeast 280 322 19,000  Level FlightAware ADS-B (SDAM)
Mon 08:38:42 AM -21.7595 -45.4583 35° Northeast 280 322 19,000  Level FlightAware ADS-B (SDAM)
Mon 08:39:11 AM -21.7265 -45.4330 35° Northeast 280 322 19,000  Level FlightAware ADS-B (SDAM)
Mon 08:39:43 AM -21.6936 -45.4078 35° Northeast 280 322 19,000  Level FlightAware ADS-B (SDAM)
Mon 08:40:12 AM -21.6615 -45.3831 35° Northeast 280 322 19,000  Level FlightAware ADS-B (SDAM)
Mon 08:40:40 AM -21.6330 -45.3613 35° Northeast 280 322 19,000  Level FlightAware ADS-B (SDAM)
Mon 08:41:02 AM -21.6107 -45.3442 35° Northeast 280 322 19,000  Level FlightAware ADS-B (SDAM)
Mon 08:41:42 AM -21.5674 -45.3111 35° Northeast 280 322 19,000  Level FlightAware ADS-B (SDAM)
Mon 08:42:13 AM -21.5343 -45.2857 35° Northeast 281 323 19,000  Level FlightAware ADS-B (SDAM)
Mon 08:42:42 AM -21.5037 -45.2623 35° Northeast 281 323 19,000  Level FlightAware ADS-B (SDAM)
Mon 08:43:13 AM -21.4706 -45.2370 35° Northeast 282 325 19,000  Level FlightAware ADS-B (SDAM)
Mon 08:43:43 AM -21.4403 -45.2139 35° Northeast 282 325 19,000  Level FlightAware ADS-B (SDAM)
Mon 08:44:09 AM -21.4104 -45.1910 35° Northeast 281 323 19,000  Level FlightAware ADS-B (SDAM)
Mon 08:44:44 AM -21.3734 -45.1628 35° Northeast 281 323 19,000  Level FlightAware ADS-B (SDAM)
Mon 08:45:13 AM -21.3412 -45.1382 35° Northeast 280 322 19,000  Level FlightAware ADS-B (SDAM)
Mon 08:45:44 AM -21.3099 -45.1143 35° Northeast 280 322 19,000  Level FlightAware ADS-B (SDAM)
Mon 08:45:55 AM -21.2983 -45.1054 35° Northeast 280 322 19,000 -556 Level FlightAware ADS-B (SDAM)
Mon 09:05:31 AM -19.9511 -44.2162 16° North 267 307 8,000 -577 Descending FlightAware ADS-B
Mon 09:06:02 AM -19.9144 -44.2046 16° North 264 304 7,400 -787 Descending FlightAware ADS-B
Mon 09:06:32 AM -19.8803 -44.1938 16° North 241 277 7,200 -800 Descending FlightAware ADS-B
Mon 09:07:02 AM -19.8496 -44.1842 16° North 224 258 6,600 -1,300 Descending FlightAware ADS-B
Mon 09:07:32 AM -19.8218 -44.1751 16° North 210 242 5,900 -1,500 Descending FlightAware ADS-B
Mon 09:08:02 AM -19.8029 -44.1558 75° East 196 226 5,100 -1,475 Descending FlightAware ADS-B
Mon 09:08:33 AM -19.7965 -44.1266 77° East 190 219 4,400 -984 Descending FlightAware ADS-B
Mon 09:09:03 AM -19.7961 -44.1007 108° East 165 190 4,100 -300 Descending FlightAware ADS-B
Mon 09:09:33 AM -19.8050 -44.0785 111° Southeast 165 190 4,100  Level FlightAware ADS-B
Mon 09:10:03 AM -19.8131 -44.0551 111° Southeast 174 200 4,100 -102 Level FlightAware ADS-B
Mon 09:10:32 AM -19.8216 -44.0315 111° Southeast 166 191 4,000 -600 Descending FlightAware ADS-B
Mon 09:11:03 AM -19.8286 -44.0119 110° East 135 155 3,500 -984 Descending FlightAware ADS-B
Mon 09:11:33 AM -19.8347 -43.9945 111° Southeast 115 132 3,000 -857 Descending FlightAware ADS-B
Mon 09:11:59 AM -19.8387 -43.9836 111° Southeast 114 131 2,700 -638 Descending FlightAware ADS-B
Mon 09:12:20 AM -19.8424 -43.9734 111° Southeast 115 132 2,500 -571 Descending FlightAware ADS-B
Mon 09:15:00 AM -19.8512 -43.9506 112° Southeast  Level Estimated
Mon 09:16:00 AM -19.8512 -43.9506 North  Level Estimated
Mon 09:17:00 AM -19.8512 -43.9506 North  Level Estimated
Mon 09:18:00 AM -19.8512 -43.9506 North  Level Estimated
Mon 09:19:00 AM -19.8512 -43.9506 North  Level Estimated
Mon 09:20:00 AM -19.8512 -43.9506 North  Level Estimated
Mon 09:21:00 AM -19.8512 -43.9506 North  Level Estimated
Mon 09:22:00 AM -19.8512 -43.9506 North  Level Estimated
Mon 09:23:00 AM -19.8512 -43.9506 North  Level Estimated
Mon 09:24:00 AM -19.8512 -43.9506 North  Level Estimated
Mon 09:25:00 AM -19.8512 -43.9506 North  Level Estimated
Mon 09:26:00 AM -19.8512 -43.9506 North  Level Estimated
Mon 09:27:00 AM -19.8512 -43.9506 North  Level Estimated
Mon 09:28:00 AM -19.8512 -43.9506 North  Level Estimated
Mon 09:29:00 AM -19.8512 -43.9506 North  Level Estimated
Mon 09:30:00 AM -19.8512 -43.9506 North  Level Estimated
Mon 09:31:00 AM -19.8512 -43.9506 North  Level Estimated
Mon 09:32:00 AM -19.8512 -43.9506 North  Level Estimated
Mon 09:33:00 AM -19.8512 -43.9506 North  Level Estimated
Mon 09:34:00 AM -19.8512 -43.9506 North  Level Estimated
Mon 09:35:00 AM -19.8512 -43.9506 North  Level Estimated
Mon 09:36:00 AM -19.8512 -43.9506 North  Level Estimated
Mon 09:37:00 AM -19.8512 -43.9506 North  Level Estimated
Mon 09:38:00 AM -19.8512 -43.9506 North  Level Estimated
Mon 09:39:00 AM -19.8512 -43.9506 North  Level Estimated
Mon 09:40:00 AM -19.8512 -43.9506 North  Level Estimated
Mon 09:41:00 AM -19.8512 -43.9506 North  Level Estimated
Mon 09:42:00 AM -19.8512 -43.9506 North  Level Estimated
Mon 09:43:00 AM -19.8512 -43.9506 North  Level Estimated

Login

Don't have an account? Register now (free) for customized features, flight alerts, and more!